createdAt,value
2018-07-25T00:03:48.715Z,4
2018-07-25T00:09:01.578Z,4
2018-07-25T00:14:14.364Z,0
2018-07-25T00:19:27.423Z,0
2018-07-25T00:24:40.037Z,0
2018-07-25T00:29:52.952Z,0
2018-07-25T00:35:05.685Z,0
2018-07-25T00:40:18.598Z,0
2018-07-25T00:45:31.466Z,0
2018-07-25T00:50:44.211Z,0
2018-07-25T00:55:57.112Z,0
2018-07-25T01:01:09.849Z,0
2018-07-25T01:06:22.679Z,0
2018-07-25T01:11:35.577Z,0
2018-07-25T01:22:01.285Z,0
2018-07-25T01:27:14.033Z,0
2018-07-25T01:32:26.987Z,0
2018-07-25T01:37:39.704Z,0
2018-07-25T01:42:52.997Z,0
2018-07-25T01:48:05.319Z,0
2018-07-25T01:53:18.134Z,0
2018-07-25T02:03:43.855Z,0
2018-07-25T02:24:35.197Z,8
2018-07-25T02:35:00.819Z,8
2018-07-25T02:40:13.608Z,8
2018-07-25T02:45:26.454Z,8
2018-07-25T02:50:39.252Z,8
2018-07-25T02:55:52.118Z,8
2018-07-25T03:01:04.921Z,8
2018-07-25T03:06:18.457Z,8
2018-07-25T03:11:30.576Z,8
2018-07-25T03:16:43.555Z,8
2018-07-25T03:21:56.245Z,8
2018-07-25T03:27:09.078Z,8
2018-07-25T03:37:34.709Z,8
2018-07-25T03:42:47.558Z,8
2018-07-25T03:48:00.345Z,8
2018-07-25T03:53:13.260Z,8
2018-07-25T03:58:26.164Z,4
2018-07-25T04:03:38.887Z,8
2018-07-25T04:08:51.669Z,8
2018-07-25T04:14:04.497Z,8
2018-07-25T04:19:17.611Z,8
2018-07-25T04:24:30.207Z,8
2018-07-25T04:29:43.087Z,12
2018-07-25T04:34:55.824Z,8
2018-07-25T04:40:08.643Z,8
2018-07-25T04:45:21.476Z,12
2018-07-25T04:50:34.559Z,12
2018-07-25T04:55:47.151Z,12
2018-07-25T05:00:59.967Z,12
2018-07-25T05:06:13.976Z,12
2018-07-25T05:11:25.612Z,12
2018-07-25T05:16:38.470Z,16
2018-07-25T05:21:51.356Z,12
2018-07-25T05:27:04.094Z,12
2018-07-25T05:32:16.919Z,16
2018-07-25T05:37:29.790Z,12
2018-07-25T05:42:42.621Z,12
2018-07-25T05:47:55.648Z,16
2018-07-25T05:53:08.287Z,16
2018-07-25T05:58:21.139Z,12
2018-07-25T06:03:34.121Z,16
2018-07-25T06:08:46.728Z,16
2018-07-25T06:13:59.639Z,16
2018-07-25T06:19:12.401Z,16
2018-07-25T06:29:38.103Z,16
2018-07-25T06:34:51.136Z,16
2018-07-25T06:40:03.731Z,16
2018-07-25T06:45:16.545Z,20
2018-07-25T06:50:29.357Z,20
2018-07-25T06:55:42.183Z,20
2018-07-25T07:00:55.028Z,20
2018-07-25T07:06:07.859Z,16
2018-07-25T07:11:20.677Z,16
2018-07-25T07:16:33.552Z,16
2018-07-25T07:21:46.337Z,16
2018-07-25T07:26:59.233Z,16
2018-07-25T07:32:12.075Z,20
2018-07-25T07:37:24.819Z,20
2018-07-25T07:47:50.479Z,20
2018-07-25T07:53:03.439Z,20
2018-07-25T07:58:16.247Z,20
2018-07-25T08:03:29.133Z,20
2018-07-25T08:08:42.025Z,20
2018-07-25T08:13:54.613Z,20
2018-07-25T08:19:07.606Z,20
2018-07-25T08:24:20.319Z,20
2018-07-25T08:29:33.256Z,20
2018-07-25T08:34:45.974Z,20
2018-07-25T08:39:58.795Z,20
2018-07-25T08:45:11.699Z,20
2018-07-25T08:50:24.462Z,20
2018-07-25T08:55:37.303Z,20
2018-07-25T09:00:50.061Z,20
2018-07-25T09:06:03.648Z,20
2018-07-25T09:11:15.737Z,20
2018-07-25T09:16:28.648Z,20
2018-07-25T09:21:41.389Z,20
2018-07-25T09:26:54.257Z,24
2018-07-25T09:32:07.115Z,24
2018-07-25T09:37:20.343Z,24
2018-07-25T09:42:32.984Z,24
2018-07-25T09:47:45.579Z,24
2018-07-25T09:58:11.173Z,20
2018-07-25T10:03:23.987Z,20
2018-07-25T10:08:36.882Z,20
2018-07-25T10:13:49.670Z,20
2018-07-25T10:19:02.495Z,20
2018-07-25T10:24:15.299Z,20
2018-07-25T10:29:28.141Z,20
2018-07-25T10:34:41.068Z,20
2018-07-25T10:39:53.920Z,20
2018-07-25T10:45:06.632Z,24
2018-07-25T11:00:45.255Z,20
2018-07-25T11:05:57.952Z,20
2018-07-25T11:11:11.040Z,24
2018-07-25T11:16:23.644Z,24
2018-07-25T11:21:36.468Z,24
2018-07-25T11:26:49.373Z,24
2018-07-25T11:32:02.111Z,24
2018-07-25T11:37:15.021Z,24
2018-07-25T11:42:28.314Z,20
2018-07-25T11:47:40.609Z,20
2018-07-25T11:52:53.506Z,20
2018-07-25T11:58:06.256Z,24
2018-07-25T12:08:31.996Z,24
2018-07-25T12:13:44.777Z,28
2018-07-25T12:18:57.613Z,24
2018-07-25T12:24:10.478Z,28
2018-07-25T12:29:23.273Z,28
2018-07-25T12:34:36.056Z,24
2018-07-25T12:39:48.878Z,24
2018-07-25T12:45:01.789Z,24
2018-07-25T12:50:14.556Z,12
2018-07-25T12:55:27.381Z,24
2018-07-25T13:00:40.315Z,16
2018-07-25T13:05:53.095Z,24
2018-07-25T13:11:05.907Z,20
2018-07-25T13:16:18.699Z,16
2018-07-25T13:21:31.572Z,16
2018-07-25T13:26:44.370Z,24
2018-07-25T13:31:57.194Z,24
2018-07-25T13:42:27.020Z,16
2018-07-25T13:47:35.684Z,24
2018-07-25T13:52:48.529Z,24
2018-07-25T13:58:01.499Z,24
2018-07-25T14:03:14.184Z,28
2018-07-25T14:08:27.116Z,20
2018-07-25T14:13:39.864Z,16
2018-07-25T14:18:53.096Z,16
2018-07-25T14:24:05.590Z,16
2018-07-25T14:29:18.330Z,16
2018-07-25T14:34:31.266Z,12
2018-07-25T14:39:44.380Z,16
2018-07-25T14:44:56.922Z,16
2018-07-25T14:50:09.868Z,12
2018-07-25T14:55:22.529Z,12
2018-07-25T15:00:35.345Z,12
2018-07-25T15:05:48.152Z,12
2018-07-25T15:11:03.117Z,12
2018-07-25T15:16:14.082Z,12
2018-07-25T15:21:26.638Z,12
2018-07-25T15:26:39.529Z,8
2018-07-25T15:31:52.308Z,12
2018-07-25T15:37:05.138Z,12
2018-07-25T15:42:18.773Z,12
2018-07-25T15:47:30.796Z,8
2018-07-25T15:52:43.712Z,12
2018-07-25T15:57:56.603Z,12
2018-07-25T16:03:09.312Z,8
2018-07-25T16:08:22.124Z,8
2018-07-25T16:13:34.953Z,8
2018-07-25T16:18:47.807Z,8
2018-07-25T16:24:00.616Z,12
2018-07-25T16:29:13.503Z,12
2018-07-25T16:34:26.346Z,12
2018-07-25T16:39:39.195Z,8
2018-07-25T16:44:51.979Z,8
2018-07-25T16:50:04.790Z,8
2018-07-25T16:55:17.675Z,8
2018-07-25T17:00:30.436Z,8
2018-07-25T17:10:56.092Z,8
2018-07-25T17:16:08.956Z,8
2018-07-25T17:21:21.747Z,8
2018-07-25T17:26:34.588Z,8
2018-07-25T17:37:00.306Z,8
2018-07-25T17:42:13.215Z,8
2018-07-25T17:47:26.014Z,8
2018-07-25T17:52:38.755Z,8
2018-07-25T17:57:51.565Z,8
2018-07-25T18:03:04.600Z,8
2018-07-25T18:08:17.221Z,8
2018-07-25T18:13:30.142Z,8
2018-07-25T18:18:42.888Z,8
2018-07-25T18:23:55.727Z,8
2018-07-25T18:29:08.558Z,8
2018-07-25T18:39:34.391Z,8
2018-07-25T18:44:47.064Z,4
2018-07-25T18:55:12.766Z,4
2018-07-25T19:00:25.579Z,8
2018-07-25T19:05:38.477Z,0
2018-07-25T19:10:54.229Z,0
2018-07-25T19:16:05.385Z,0
2018-07-25T19:21:16.917Z,0
2018-07-25T19:26:29.705Z,0
2018-07-25T19:31:42.535Z,0
2018-07-25T19:36:55.439Z,0
2018-07-25T19:42:08.639Z,0
2018-07-25T19:47:21.032Z,0
2018-07-25T19:52:33.841Z,0
2018-07-25T19:57:46.706Z,0
2018-07-25T20:02:59.598Z,0
2018-07-25T20:08:12.340Z,0
2018-07-25T20:13:25.242Z,0
2018-07-25T20:23:50.935Z,0
2018-07-25T20:29:03.667Z,0
2018-07-25T20:34:16.506Z,0
2018-07-25T20:39:29.339Z,0
2018-07-25T20:44:42.165Z,0
2018-07-25T20:49:54.978Z,0
2018-07-25T20:55:07.888Z,0
2018-07-25T21:00:20.699Z,0
2018-07-25T21:05:33.506Z,0
2018-07-25T21:10:46.620Z,0
2018-07-25T21:15:59.127Z,0
2018-07-25T21:21:11.975Z,0
2018-07-25T21:26:24.852Z,0
2018-07-25T21:31:37.630Z,0
2018-07-25T21:36:50.447Z,0
2018-07-25T21:47:16.228Z,0
2018-07-25T21:52:28.958Z,0
2018-07-25T21:57:41.925Z,0
2018-07-25T22:02:54.588Z,0
2018-07-25T22:08:07.554Z,0
2018-07-25T22:13:20.240Z,0
2018-07-25T22:18:33.073Z,0
2018-07-25T22:28:58.786Z,0
2018-07-25T22:34:11.571Z,0
2018-07-25T22:39:24.528Z,0
2018-07-25T22:44:37.286Z,0
2018-07-25T22:49:50.051Z,0
2018-07-25T22:55:02.924Z,0
2018-07-25T23:00:15.699Z,0
2018-07-25T23:15:54.190Z,0
2018-07-25T23:21:07.058Z,0
2018-07-25T23:26:19.862Z,0
2018-07-25T23:31:32.681Z,0
2018-07-25T23:36:45.512Z,0
2018-07-25T23:41:58.385Z,0
2018-07-25T23:57:36.822Z,0
